Time,TemperatureF,DewpointF,PressureIn,WindDirection,WindDirectionDegrees,WindSpeedMPH,WindSpeedGustMPH,Humidity,HourlyPrecipIn,Conditions,Clouds,dailyrainin,SoftwareType,DateUTC
2013-02-02 00:00:00,9.0,4.4,30.46,North,360,0.0,0.0,81,0.00,,---,0.00,VWS V14.01,2013-02-02 05:00:00,
2013-02-02 00:01:00,9.0,4.4,30.46,North,360,0.0,0.0,81,0.00,,---,0.00,VWS V14.01,2013-02-02 05:01:00,
2013-02-02 00:02:00,9.0,4.4,30.46,North,360,0.0,0.0,81,0.00,,---,0.00,VWS V14.01,2013-02-02 05:02:00,
2013-02-02 00:03:00,9.0,4.4,30.46,North,360,0.0,0.0,81,0.00,,---,0.00,VWS V14.01,2013-02-02 05:03:00,
2013-02-02 00:05:00,8.3,4.5,30.45,North,360,0.0,1.0,84,0.00,,---,0.00,VWS V14.01,2013-02-02 05:05:00,
2013-02-02 00:08:00,8.9,4.5,30.45,North,360,0.0,0.0,82,0.00,,---,0.00,VWS V14.01,2013-02-02 05:08:00,
2013-02-02 00:10:00,8.4,4.6,30.45,North,5,0.0,0.0,84,0.00,,---,0.00,VWS V14.01,2013-02-02 05:10:00,
2013-02-02 00:13:00,8.9,4.5,30.46,North,360,0.0,1.0,82,0.00,,---,0.00,VWS V14.01,2013-02-02 05:13:00,
2013-02-02 00:15:00,8.5,4.9,30.45,North,5,0.0,0.0,85,0.00,,---,0.00,VWS V14.01,2013-02-02 05:15:00,
2013-02-02 00:18:00,8.9,4.5,30.46,North,360,0.0,0.0,82,0.00,,---,0.00,VWS V14.01,2013-02-02 05:18:00,
2013-02-02 00:20:00,8.7,5.1,30.45,North,360,0.0,0.0,85,0.00,,---,0.00,VWS V14.01,2013-02-02 05:20:00,
2013-02-02 00:23:00,8.8,4.4,30.45,North,5,0.0,0.0,82,0.00,,---,0.00,VWS V14.01,2013-02-02 05:23:00,
2013-02-02 00:25:00,8.8,5.0,30.45,North,360,0.0,0.0,84,0.00,,---,0.00,VWS V14.01,2013-02-02 05:25:00,
2013-02-02 00:28:00,8.7,4.3,30.45,North,5,0.0,0.0,82,0.00,,---,0.00,VWS V14.01,2013-02-02 05:28:00,
2013-02-02 00:30:00,9.0,5.2,30.45,North,360,0.0,0.0,84,0.00,,---,0.00,VWS V14.01,2013-02-02 05:30:00,
2013-02-02 00:33:00,8.6,4.5,30.45,North,360,0.0,0.0,83,0.00,,---,0.00,VWS V14.01,2013-02-02 05:33:00,
2013-02-02 00:35:00,9.1,5.3,30.45,North,5,0.0,0.0,84,0.00,,---,0.00,VWS V14.01,2013-02-02 05:35:00,
2013-02-02 00:38:00,8.5,4.4,30.46,North,360,0.0,0.0,83,0.00,,---,0.00,VWS V14.01,2013-02-02 05:38:00,
2013-02-02 00:40:00,9.3,5.4,30.45,NE,44,0.0,1.0,84,0.00,,---,0.00,VWS V14.01,2013-02-02 05:40:00,
2013-02-02 00:43:00,8.5,4.4,30.45,North,360,0.0,0.0,83,0.00,,---,0.00,VWS V14.01,2013-02-02 05:43:00,
2013-02-02 00:45:00,9.4,5.3,30.44,NE,44,0.0,0.0,83,0.00,,---,0.00,VWS V14.01,2013-02-02 05:45:00,
2013-02-02 00:48:00,8.4,4.3,30.45,North,360,0.0,0.0,83,0.00,,---,0.00,VWS V14.01,2013-02-02 05:48:00,
2013-02-02 00:50:00,9.5,5.4,30.44,NE,44,0.0,0.0,83,0.00,,---,0.00,VWS V14.01,2013-02-02 05:50:00,
2013-02-02 00:53:00,8.4,4.6,30.45,North,360,0.0,1.0,84,0.00,,---,0.00,VWS V14.01,2013-02-02 05:53:00,
2013-02-02 00:55:00,9.6,5.5,30.44,NE,44,0.0,0.0,83,0.00,,---,0.00,VWS V14.01,2013-02-02 05:55:00,
2013-02-02 00:58:00,8.4,4.6,30.45,North,5,0.0,0.0,84,0.00,,---,0.00,VWS V14.01,2013-02-02 05:58:00,
2013-02-02 01:00:00,9.6,5.5,30.44,NE,44,0.0,0.0,83,0.00,,---,0.00,VWS V14.01,2013-02-02 06:00:00,
2013-02-02 01:03:00,8.5,4.7,30.45,North,360,0.0,0.0,84,0.00,,---,0.00,VWS V14.01,2013-02-02 06:03:00,
2013-02-02 01:05:00,9.6,5.2,30.44,NE,44,0.0,0.0,82,0.00,,---,0.00,VWS V14.01,2013-02-02 06:05:00,
2013-02-02 01:08:00,8.7,5.1,30.45,North,360,0.0,0.0,85,0.00,,---,0.00,VWS V14.01,2013-02-02 06:08:00,
2013-02-02 01:10:00,9.6,5.2,30.44,NE,44,0.0,0.0,82,0.00,,---,0.00,VWS V14.01,2013-02-02 06:10:00,
2013-02-02 01:13:00,8.9,5.1,30.45,North,360,0.0,0.0,84,0.00,,---,0.00,VWS V14.01,2013-02-02 06:13:00,
2013-02-02 01:15:00,9.5,5.1,30.44,NE,44,0.0,0.0,82,0.00,,---,0.00,VWS V14.01,2013-02-02 06:15:00,
2013-02-02 01:18:00,8.9,5.1,30.45,North,5,0.0,0.0,84,0.00,,---,0.00,VWS V14.01,2013-02-02 06:18:00,
2013-02-02 01:20:00,9.5,5.1,30.44,NE,54,0.0,0.0,82,0.00,,---,0.00,VWS V14.01,2013-02-02 06:20:00,
2013-02-02 01:23:00,9.1,5.3,30.45,North,360,0.0,0.0,84,0.00,,---,0.00,VWS V14.01,2013-02-02 06:23:00,
2013-02-02 01:25:00,9.4,5.0,30.44,NE,54,0.0,0.0,82,0.00,,---,0.00,VWS V14.01,2013-02-02 06:25:00,
2013-02-02 01:28:00,9.3,5.4,30.45,NE,44,0.0,1.0,84,0.00,,---,0.00,VWS V14.01,2013-02-02 06:28:00,
2013-02-02 01:30:00,9.4,5.0,30.44,NE,54,0.0,0.0,82,0.00,,---,0.00,VWS V14.01,2013-02-02 06:30:00,
2013-02-02 01:33:00,9.4,5.3,30.44,NE,44,0.0,0.0,83,0.00,,---,0.00,VWS V14.01,2013-02-02 06:33:00,
2013-02-02 01:35:00,9.3,7.4,30.44,NE,54,0.0,0.0,92,0.00,,---,0.00,VWS V14.01,2013-02-02 06:35:00,
2013-02-02 01:38:00,9.5,5.4,30.44,NE,44,0.0,0.0,83,0.00,,---,0.00,VWS V14.01,2013-02-02 06:38:00,
2013-02-02 01:40:00,9.3,5.2,30.44,NE,54,0.0,0.0,83,0.00,,---,0.00,VWS V14.01,2013-02-02 06:40:00,
2013-02-02 01:43:00,9.6,5.5,30.44,NE,44,0.0,0.0,83,0.00,,---,0.00,VWS V14.01,2013-02-02 06:43:00,
2013-02-02 01:45:00,9.4,5.3,30.44,NE,53,0.0,0.0,83,0.00,,---,0.00,VWS V14.01,2013-02-02 06:45:00,
2013-02-02 01:48:00,9.6,5.5,30.44,NE,44,0.0,0.0,83,0.00,,---,0.00,VWS V14.01,2013-02-02 06:48:00,
2013-02-02 01:50:00,9.5,5.4,30.44,NE,54,0.0,0.0,83,0.00,,---,0.00,VWS V14.01,2013-02-02 06:50:00,
2013-02-02 01:53:00,9.6,5.2,30.44,NE,44,0.0,0.0,82,0.00,,---,0.00,VWS V14.01,2013-02-02 06:53:00,
2013-02-02 01:55:00,9.5,5.4,30.43,NE,53,0.0,0.0,83,0.00,,---,0.00,VWS V14.01,2013-02-02 06:55:00,
2013-02-02 01:58:00,9.6,5.2,30.44,NE,44,0.0,0.0,82,0.00,,---,0.00,VWS V14.01,2013-02-02 06:58:00,
2013-02-02 02:00:00,9.6,5.5,30.43,NE,53,0.0,0.0,83,0.00,,---,0.00,VWS V14.01,2013-02-02 07:00:00,
2013-02-02 02:04:00,9.5,5.1,30.44,NE,44,0.0,0.0,82,0.00,,---,0.00,VWS V14.01,2013-02-02 07:04:00,
2013-02-02 02:05:00,9.5,5.1,30.43,NE,54,0.0,0.0,82,0.00,,---,0.00,VWS V14.01,2013-02-02 07:05:00,
2013-02-02 02:09:00,9.5,5.1,30.44,NE,54,0.0,0.0,82,0.00,,---,0.00,VWS V14.01,2013-02-02 07:09:00,
2013-02-02 02:10:00,9.4,5.0,30.43,NE,54,0.0,0.0,82,0.00,,---,0.00,VWS V14.01,2013-02-02 07:10:00,
2013-02-02 02:14:00,9.4,5.0,30.44,NE,53,0.0,0.0,82,0.00,,---,0.00,VWS V14.01,2013-02-02 07:14:00,
2013-02-02 02:15:00,9.4,5.0,30.43,NE,54,0.0,1.0,82,0.00,,---,0.00,VWS V14.01,2013-02-02 07:15:00,
2013-02-02 02:19:00,9.4,5.3,30.44,NE,54,0.0,0.0,83,0.00,,---,0.00,VWS V14.01,2013-02-02 07:19:00,
2013-02-02 02:20:00,9.3,4.9,30.43,NE,54,0.0,0.0,82,0.00,,---,0.00,VWS V14.01,2013-02-02 07:20:00,
2013-02-02 02:24:00,9.3,5.2,30.44,NE,53,0.0,0.0,83,0.00,,---,0.00,VWS V14.01,2013-02-02 07:24:00,
2013-02-02 02:25:00,9.2,4.8,30.43,NE,54,0.0,1.0,82,0.00,,---,0.00,VWS V14.01,2013-02-02 07:25:00,
2013-02-02 02:29:00,9.3,5.2,30.44,NE,54,0.0,0.0,83,0.00,,---,0.00,VWS V14.01,2013-02-02 07:29:00,
2013-02-02 02:30:00,9.1,4.7,30.43,NE,54,0.0,0.0,82,0.00,,---,0.00,VWS V14.01,2013-02-02 07:30:00,
2013-02-02 02:34:00,9.4,5.3,30.44,NE,53,0.0,0.0,83,0.00,,---,0.00,VWS V14.01,2013-02-02 07:34:00,
2013-02-02 02:35:00,8.9,4.5,30.42,NE,53,0.0,0.0,82,0.00,,---,0.00,VWS V14.01,2013-02-02 07:35:00,
2013-02-02 02:39:00,9.5,5.4,30.44,NE,54,0.0,0.0,83,0.00,,---,0.00,VWS V14.01,2013-02-02 07:39:00,
2013-02-02 02:40:00,8.9,4.8,30.42,NE,54,0.0,1.0,83,0.00,,---,0.00,VWS V14.01,2013-02-02 07:40:00,
2013-02-02 02:44:00,9.5,5.4,30.43,NE,53,0.0,0.0,83,0.00,,---,0.00,VWS V14.01,2013-02-02 07:44:00,
2013-02-02 02:45:00,8.8,5.0,30.42,NE,54,0.0,0.0,84,0.00,,---,0.00,VWS V14.01,2013-02-02 07:45:00,
2013-02-02 02:49:00,9.6,5.5,30.43,NE,53,0.0,0.0,83,0.00,,---,0.00,VWS V14.01,2013-02-02 07:49:00,
2013-02-02 02:50:00,8.7,4.9,30.42,NE,54,0.0,0.0,84,0.00,,---,0.00,VWS V14.01,2013-02-02 07:50:00,
2013-02-02 02:54:00,9.5,5.1,30.43,NE,54,0.0,0.0,82,0.00,,---,0.00,VWS V14.01,2013-02-02 07:54:00,
2013-02-02 02:55:00,8.5,4.7,30.42,NE,53,0.0,0.0,84,0.00,,---,0.00,VWS V14.01,2013-02-02 07:55:00,
2013-02-02 02:59:00,9.4,5.0,30.43,NE,54,0.0,0.0,82,0.00,,---,0.00,VWS V14.01,2013-02-02 07:59:00,
2013-02-02 03:00:00,8.3,4.7,30.42,NE,54,0.0,0.0,85,0.00,,---,0.00,VWS V14.01,2013-02-02 08:00:00,
2013-02-02 03:05:00,8.2,4.6,30.42,NE,54,0.0,0.0,85,0.00,,---,0.00,VWS V14.01,2013-02-02 08:05:00,
2013-02-02 03:06:00,9.4,5.0,30.43,NE,54,0.0,0.0,82,0.00,,---,0.00,VWS V14.01,2013-02-02 08:06:00,
2013-02-02 03:10:00,8.0,4.4,30.42,NE,53,0.0,0.0,85,0.00,,---,0.00,VWS V14.01,2013-02-02 08:10:00,
2013-02-02 03:11:00,9.3,4.9,30.43,NE,53,0.0,0.0,82,0.00,,---,0.00,VWS V14.01,2013-02-02 08:11:00,
2013-02-02 03:15:00,7.8,4.2,30.42,NE,54,0.0,0.0,85,0.00,,---,0.00,VWS V14.01,2013-02-02 08:15:00,
2013-02-02 03:16:00,9.1,4.7,30.43,NE,54,0.0,0.0,82,0.00,,---,0.00,VWS V14.01,2013-02-02 08:16:00,
2013-02-02 03:20:00,7.7,4.4,30.42,NE,54,0.0,0.0,86,0.00,,---,0.00,VWS V14.01,2013-02-02 08:20:00,
2013-02-02 03:21:00,9.0,4.6,30.42,NE,53,0.0,0.0,82,0.00,,---,0.00,VWS V14.01,2013-02-02 08:21:00,
2013-02-02 03:25:00,7.6,4.3,30.42,NE,54,0.0,0.0,86,0.00,,---,0.00,VWS V14.01,2013-02-02 08:25:00,
2013-02-02 03:26:00,8.9,4.8,30.42,NE,54,0.0,1.0,83,0.00,,---,0.00,VWS V14.01,2013-02-02 08:26:00,
2013-02-02 03:30:00,7.4,4.1,30.42,NE,54,0.0,0.0,86,0.00,,---,0.00,VWS V14.01,2013-02-02 08:30:00,
2013-02-02 03:31:00,8.8,5.0,30.42,NE,53,0.0,0.0,84,0.00,,---,0.00,VWS V14.01,2013-02-02 08:31:00,
2013-02-02 03:35:00,7.2,3.9,30.41,NE,54,0.0,0.0,86,0.00,,---,0.00,VWS V14.01,2013-02-02 08:35:00,
2013-02-02 03:36:00,8.8,5.0,30.42,NE,54,0.0,0.0,84,0.00,,---,0.00,VWS V14.01,2013-02-02 08:36:00,
2013-02-02 03:40:00,7.1,4.1,30.41,NE,53,0.0,0.0,87,0.00,,---,0.00,VWS V14.01,2013-02-02 08:40:00,
2013-02-02 03:41:00,8.6,4.8,30.42,NE,54,0.0,0.0,84,0.00,,---,0.00,VWS V14.01,2013-02-02 08:41:00,
2013-02-02 03:45:00,7.0,4.0,30.41,NE,54,0.0,0.0,87,0.00,,---,0.00,VWS V14.01,2013-02-02 08:45:00,
2013-02-02 03:46:00,8.4,4.6,30.42,NE,54,0.0,0.0,84,0.00,,---,0.00,VWS V14.01,2013-02-02 08:46:00,
2013-02-02 03:50:00,6.8,3.8,30.41,NE,53,0.0,0.0,87,0.00,,---,0.00,VWS V14.01,2013-02-02 08:50:00,
2013-02-02 03:51:00,8.3,4.7,30.42,NE,54,0.0,0.0,85,0.00,,---,0.00,VWS V14.01,2013-02-02 08:51:00,
2013-02-02 03:55:00,6.7,3.7,30.41,NE,54,0.0,0.0,87,0.00,,---,0.00,VWS V14.01,2013-02-02 08:55:00,
2013-02-02 03:56:00,8.1,4.5,30.43,NE,54,0.0,0.0,85,0.00,,---,0.00,VWS V14.01,2013-02-02 08:56:00,
2013-02-02 04:00:00,6.7,3.9,30.41,NE,54,0.0,0.0,88,0.00,,---,0.00,VWS V14.01,2013-02-02 09:00:00,
2013-02-02 04:01:00,7.9,4.3,30.42,NE,53,0.0,0.0,85,0.00,,---,0.00,VWS V14.01,2013-02-02 09:01:00,
2013-02-02 04:05:00,6.6,3.8,30.41,NE,54,0.0,0.0,88,0.00,,---,0.00,VWS V14.01,2013-02-02 09:05:00,
2013-02-02 04:06:00,7.8,4.2,30.42,NE,53,0.0,0.0,85,0.00,,---,0.00,VWS V14.01,2013-02-02 09:06:00,
2013-02-02 04:10:00,6.5,3.7,30.41,NE,53,0.0,0.0,88,0.00,,---,0.00,VWS V14.01,2013-02-02 09:10:00,
2013-02-02 04:11:00,7.6,4.3,30.42,NE,53,0.0,0.0,86,0.00,,---,0.00,VWS V14.01,2013-02-02 09:11:00,
2013-02-02 04:15:00,6.5,3.7,30.40,NE,54,0.0,0.0,88,0.00,,---,0.00,VWS V14.01,2013-02-02 09:15:00,
2013-02-02 04:17:00,7.5,4.2,30.42,NE,54,0.0,0.0,86,0.00,,---,0.00,VWS V14.01,2013-02-02 09:17:00,
2013-02-02 04:20:00,6.5,4.0,30.40,NE,53,0.0,0.0,89,0.00,,---,0.00,VWS V14.01,2013-02-02 09:20:00,
2013-02-02 04:22:00,7.3,4.0,30.41,NE,53,0.0,0.0,86,0.00,,---,0.00,VWS V14.01,2013-02-02 09:22:00,
2013-02-02 04:25:00,6.5,4.0,30.40,NE,54,0.0,0.0,89,0.00,,---,0.00,VWS V14.01,2013-02-02 09:25:00,
2013-02-02 04:27:00,7.2,4.2,30.41,NE,54,0.0,0.0,87,0.00,,---,0.00,VWS V14.01,2013-02-02 09:27:00,
2013-02-02 04:30:00,6.5,4.2,30.41,NE,54,0.0,0.0,90,0.00,,---,0.00,VWS V14.01,2013-02-02 09:30:00,
2013-02-02 04:32:00,7.0,4.0,30.41,NE,54,0.0,0.0,87,0.00,,---,0.00,VWS V14.01,2013-02-02 09:32:00,
2013-02-02 04:35:00,6.6,4.3,30.40,NE,54,0.0,0.0,90,0.00,,---,0.00,VWS V14.01,2013-02-02 09:35:00,
2013-02-02 04:37:00,6.9,3.9,30.41,NE,53,0.0,0.0,87,0.00,,---,0.00,VWS V14.01,2013-02-02 09:37:00,
2013-02-02 04:40:00,6.6,4.3,30.40,NE,54,0.0,0.0,90,0.00,,---,0.00,VWS V14.01,2013-02-02 09:40:00,
2013-02-02 04:42:00,6.7,3.7,30.41,NE,53,0.0,0.0,87,0.00,,---,0.00,VWS V14.01,2013-02-02 09:42:00,
2013-02-02 04:45:00,6.8,4.5,30.40,NE,53,0.0,0.0,90,0.00,,---,0.00,VWS V14.01,2013-02-02 09:45:00,
2013-02-02 04:47:00,6.7,3.9,30.41,NE,53,0.0,0.0,88,0.00,,---,0.00,VWS V14.01,2013-02-02 09:47:00,
2013-02-02 04:50:00,6.9,4.6,30.40,NE,54,0.0,0.0,90,0.00,,---,0.00,VWS V14.01,2013-02-02 09:50:00,
2013-02-02 04:52:00,6.6,3.8,30.41,NE,53,0.0,0.0,88,0.00,,---,0.00,VWS V14.01,2013-02-02 09:52:00,
2013-02-02 04:55:00,7.2,4.9,30.40,NE,54,0.0,0.0,90,0.00,,---,0.00,VWS V14.01,2013-02-02 09:55:00,
2013-02-02 04:57:00,6.6,3.8,30.41,NE,54,0.0,0.0,88,0.00,,---,0.00,VWS V14.01,2013-02-02 09:57:00,
2013-02-02 05:00:00,7.7,5.4,30.39,NE,54,0.0,0.0,90,0.00,,---,0.00,VWS V14.01,2013-02-02 10:00:00,
2013-02-02 05:02:00,6.5,3.7,30.40,NE,54,0.0,0.0,88,0.00,,---,0.00,VWS V14.01,2013-02-02 10:02:00,
2013-02-02 05:05:00,8.1,5.5,30.39,NE,54,0.0,0.0,89,0.00,,---,0.00,VWS V14.01,2013-02-02 10:05:00,
2013-02-02 05:07:00,6.5,4.0,30.40,NE,54,0.0,0.0,89,0.00,,---,0.00,VWS V14.01,2013-02-02 10:07:00,
2013-02-02 05:10:00,8.3,5.7,30.39,NE,54,0.0,0.0,89,0.00,,---,0.00,VWS V14.01,2013-02-02 10:10:00,
2013-02-02 05:12:00,6.5,4.0,30.40,NE,54,0.0,0.0,89,0.00,,---,0.00,VWS V14.01,2013-02-02 10:12:00,
2013-02-02 05:15:00,8.6,5.8,30.39,NE,54,0.0,0.0,88,0.00,,---,0.00,VWS V14.01,2013-02-02 10:15:00,
2013-02-02 05:17:00,6.5,4.0,30.41,NE,54,0.0,0.0,89,0.00,,---,0.00,VWS V14.01,2013-02-02 10:17:00,
2013-02-02 05:20:00,8.8,5.7,30.39,ENE,65,1.0,2.0,87,0.00,,---,0.00,VWS V14.01,2013-02-02 10:20:00,
2013-02-02 05:22:00,6.5,4.2,30.41,NE,54,0.0,0.0,90,0.00,,---,0.00,VWS V14.01,2013-02-02 10:22:00,
2013-02-02 05:25:00,9.0,5.7,30.39,ENE,67,0.0,2.0,86,0.00,,---,0.00,VWS V14.01,2013-02-02 10:25:00,
2013-02-02 05:27:00,6.6,4.3,30.40,NE,54,0.0,0.0,90,0.00,,---,0.00,VWS V14.01,2013-02-02 10:27:00,
2013-02-02 05:30:00,9.1,5.8,30.39,ENE,67,0.0,0.0,86,0.00,,---,0.00,VWS V14.01,2013-02-02 10:30:00,
2013-02-02 05:32:00,6.7,4.4,30.40,NE,54,0.0,0.0,90,0.00,,---,0.00,VWS V14.01,2013-02-02 10:32:00,
2013-02-02 05:35:00,9.2,5.9,30.39,ENE,66,0.0,2.0,86,0.00,,---,0.00,VWS V14.01,2013-02-02 10:35:00,
2013-02-02 05:37:00,6.9,4.6,30.40,NE,54,0.0,0.0,90,0.00,,---,0.00,VWS V14.01,2013-02-02 10:37:00,
2013-02-02 05:40:00,9.4,6.1,30.39,ENE,66,0.0,0.0,86,0.00,,---,0.00,VWS V14.01,2013-02-02 10:40:00,
2013-02-02 05:42:00,7.1,4.8,30.40,NE,54,0.0,0.0,90,0.00,,---,0.00,VWS V14.01,2013-02-02 10:42:00,
2013-02-02 05:45:00,9.5,6.2,30.39,ENE,65,0.0,2.0,86,0.00,,---,0.00,VWS V14.01,2013-02-02 10:45:00,
2013-02-02 05:47:00,7.6,5.3,30.40,NE,54,0.0,0.0,90,0.00,,---,0.00,VWS V14.01,2013-02-02 10:47:00,
2013-02-02 05:50:00,9.5,5.9,30.39,ENE,65,0.0,1.0,85,0.00,,---,0.00,VWS V14.01,2013-02-02 10:50:00,
2013-02-02 05:52:00,8.0,5.7,30.39,NE,54,0.0,0.0,90,0.00,,---,0.00,VWS V14.01,2013-02-02 10:52:00,
2013-02-02 05:55:00,9.6,6.0,30.39,ENE,65,0.0,0.0,85,0.00,,---,0.00,VWS V14.01,2013-02-02 10:55:00,
2013-02-02 05:57:00,8.3,5.7,30.39,NE,53,0.0,0.0,89,0.00,,---,0.00,VWS V14.01,2013-02-02 10:57:00,
2013-02-02 06:00:00,9.6,6.0,30.38,ENE,64,0.0,2.0,85,0.00,,---,0.00,VWS V14.01,2013-02-02 11:00:00,
2013-02-02 06:02:00,8.6,5.8,30.39,NE,53,0.0,0.0,88,0.00,,---,0.00,VWS V14.01,2013-02-02 11:02:00,
2013-02-02 06:05:00,9.7,6.1,30.39,ENE,64,0.0,0.0,85,0.00,,---,0.00,VWS V14.01,2013-02-02 11:05:00,
2013-02-02 06:07:00,8.8,5.7,30.39,NE,53,0.0,2.0,87,0.00,,---,0.00,VWS V14.01,2013-02-02 11:07:00,
2013-02-02 06:10:00,9.8,6.2,30.38,ENE,64,0.0,0.0,85,0.00,,---,0.00,VWS V14.01,2013-02-02 11:10:00,
2013-02-02 06:13:00,9.0,5.9,30.39,ENE,67,2.0,2.0,87,0.00,,---,0.00,VWS V14.01,2013-02-02 11:13:00,
2013-02-02 06:15:00,9.9,6.3,30.39,ENE,65,0.0,0.0,85,0.00,,---,0.00,VWS V14.01,2013-02-02 11:15:00,
2013-02-02 06:18:00,9.1,5.8,30.39,ENE,67,0.0,0.0,86,0.00,,---,0.00,VWS V14.01,2013-02-02 11:18:00,
2013-02-02 06:20:00,9.9,6.3,30.39,ENE,65,0.0,1.0,85,0.00,,---,0.00,VWS V14.01,2013-02-02 11:20:00,
2013-02-02 06:23:00,9.2,5.9,30.39,ENE,66,0.0,2.0,86,0.00,,---,0.00,VWS V14.01,2013-02-02 11:23:00,
2013-02-02 06:25:00,9.9,6.3,30.38,ENE,65,0.0,0.0,85,0.00,,---,0.00,VWS V14.01,2013-02-02 11:25:00,
2013-02-02 06:28:00,9.4,6.1,30.39,ENE,66,0.0,0.0,86,0.00,,---,0.00,VWS V14.01,2013-02-02 11:28:00,
2013-02-02 06:30:00,10.0,6.4,30.39,ENE,65,0.0,2.0,85,0.00,,---,0.00,VWS V14.01,2013-02-02 11:30:00,
2013-02-02 06:33:00,9.5,6.2,30.39,ENE,65,0.0,2.0,86,0.00,,---,0.00,VWS V14.01,2013-02-02 11:33:00,
2013-02-02 06:35:00,10.1,6.5,30.38,ENE,64,0.0,0.0,85,0.00,,---,0.00,VWS V14.01,2013-02-02 11:35:00,
2013-02-02 06:38:00,9.5,5.9,30.39,ENE,65,0.0,1.0,85,0.00,,---,0.00,VWS V14.01,2013-02-02 11:38:00,
2013-02-02 06:40:00,10.2,6.3,30.38,NE,39,0.0,1.0,84,0.00,,---,0.00,VWS V14.01,2013-02-02 11:40:00,
2013-02-02 06:43:00,9.6,6.0,30.39,ENE,65,0.0,0.0,85,0.00,,---,0.00,VWS V14.01,2013-02-02 11:43:00,
2013-02-02 06:45:00,10.2,6.3,30.38,NE,38,0.0,1.0,84,0.00,,---,0.00,VWS V14.01,2013-02-02 11:45:00,
2013-02-02 06:48:00,9.6,6.0,30.38,ENE,64,0.0,2.0,85,0.00,,---,0.00,VWS V14.01,2013-02-02 11:48:00,
2013-02-02 06:50:00,10.4,6.5,30.38,NE,40,0.0,1.0,84,0.00,,---,0.00,VWS V14.01,2013-02-02 11:50:00,
2013-02-02 06:53:00,9.6,6.0,30.39,ENE,64,0.0,0.0,85,0.00,,---,0.00,VWS V14.01,2013-02-02 11:53:00,
2013-02-02 06:55:00,10.4,6.5,30.38,NE,40,0.0,0.0,84,0.00,,---,0.00,VWS V14.01,2013-02-02 11:55:00,
2013-02-02 06:58:00,9.8,6.2,30.38,ENE,64,0.0,0.0,85,0.00,,---,0.00,VWS V14.01,2013-02-02 11:58:00,
2013-02-02 07:00:00,10.6,6.7,30.38,NE,40,0.0,0.0,84,0.00,,---,0.00,VWS V14.01,2013-02-02 12:00:00,
2013-02-02 07:03:00,9.9,6.3,30.39,ENE,64,0.0,0.0,85,0.00,,---,0.00,VWS V14.01,2013-02-02 12:03:00,
2013-02-02 07:05:00,10.7,6.8,30.37,NE,40,0.0,2.0,84,0.00,,---,0.00,VWS V14.01,2013-02-02 12:05:00,
2013-02-02 07:08:00,9.9,6.3,30.39,ENE,64,0.0,1.0,85,0.00,,---,0.00,VWS V14.01,2013-02-02 12:08:00,
2013-02-02 07:10:00,10.9,6.8,30.37,NE,41,2.0,3.0,83,0.00,,---,0.00,VWS V14.01,2013-02-02 12:10:00,
2013-02-02 07:13:00,9.9,6.3,30.38,ENE,65,0.0,0.0,85,0.00,,---,0.00,VWS V14.01,2013-02-02 12:13:00,
2013-02-02 07:15:00,11.0,6.9,30.37,ENE,59,2.0,3.0,83,0.00,,---,0.00,VWS V14.01,2013-02-02 12:15:00,
2013-02-02 07:18:00,10.0,6.4,30.39,ENE,65,0.0,2.0,85,0.00,,---,0.00,VWS V14.01,2013-02-02 12:18:00,
2013-02-02 07:20:00,11.1,7.0,30.37,ENE,63,3.0,4.0,83,0.00,,---,0.00,VWS V14.01,2013-02-02 12:20:00,
2013-02-02 07:23:00,10.1,6.5,30.38,ENE,64,0.0,0.0,85,0.00,,---,0.00,VWS V14.01,2013-02-02 12:23:00,
2013-02-02 07:25:00,11.2,7.1,30.37,ENE,65,0.0,3.0,83,0.00,,---,0.00,VWS V14.01,2013-02-02 12:25:00,
2013-02-02 07:28:00,10.1,6.2,30.38,NE,39,0.0,1.0,84,0.00,,---,0.00,VWS V14.01,2013-02-02 12:28:00,
2013-02-02 07:30:00,11.3,7.2,30.37,ENE,74,2.0,4.0,83,0.00,,---,0.00,VWS V14.01,2013-02-02 12:30:00,
2013-02-02 07:33:00,10.3,6.4,30.38,NE,39,0.0,1.0,84,0.00,,---,0.00,VWS V14.01,2013-02-02 12:33:00,
2013-02-02 07:35:00,11.5,7.3,30.37,NE,53,0.0,2.0,83,0.00,,---,0.00,VWS V14.01,2013-02-02 12:35:00,
2013-02-02 07:38:00,10.4,6.5,30.38,NE,40,0.0,1.0,84,0.00,,---,0.00,VWS V14.01,2013-02-02 12:38:00,
2013-02-02 07:40:00,11.7,7.6,30.37,North,5,0.0,4.0,83,0.00,,---,0.00,VWS V14.01,2013-02-02 12:40:00,
2013-02-02 07:43:00,10.5,6.6,30.38,NE,40,0.0,0.0,84,0.00,,---,0.00,VWS V14.01,2013-02-02 12:43:00,
2013-02-02 07:45:00,11.9,7.5,30.37,WSW,250,0.0,4.0,82,0.00,,---,0.00,VWS V14.01,2013-02-02 12:45:00,
2013-02-02 07:48:00,10.6,6.7,30.38,NE,40,0.0,0.0,84,0.00,,---,0.00,VWS V14.01,2013-02-02 12:48:00,
2013-02-02 07:50:00,12.1,7.7,30.36,West,281,0.0,1.0,82,0.00,,---,0.00,VWS V14.01,2013-02-02 12:50:00,
2013-02-02 07:53:00,10.7,6.8,30.37,NE,40,0.0,2.0,84,0.00,,---,0.00,VWS V14.01,2013-02-02 12:53:00,
2013-02-02 07:55:00,12.2,7.8,30.35,NNE,30,0.0,2.0,82,0.00,,---,0.00,VWS V14.01,2013-02-02 12:55:00,
2013-02-02 07:58:00,10.9,6.8,30.37,NE,41,2.0,3.0,83,0.00,,---,0.00,VWS V14.01,2013-02-02 12:58:00,
2013-02-02 08:00:00,12.3,7.9,30.36,ENE,57,0.0,3.0,82,0.00,,---,0.00,VWS V14.01,2013-02-02 13:00:00,
2013-02-02 08:03:00,11.0,6.9,30.37,ENE,59,2.0,3.0,83,0.00,,---,0.00,VWS V14.01,2013-02-02 13:03:00,
2013-02-02 08:05:00,12.5,8.1,30.36,ENE,61,1.0,3.0,82,0.00,,---,0.00,VWS V14.01,2013-02-02 13:05:00,
2013-02-02 08:08:00,11.1,7.0,30.37,ENE,63,3.0,4.0,83,0.00,,---,0.00,VWS V14.01,2013-02-02 13:08:00,
2013-02-02 08:10:00,12.6,8.2,30.35,NNE,29,2.0,3.0,82,0.00,,---,0.00,VWS V14.01,2013-02-02 13:10:00,
2013-02-02 08:13:00,11.2,7.1,30.37,ENE,65,0.0,3.0,83,0.00,,---,0.00,VWS V14.01,2013-02-02 13:13:00,
2013-02-02 08:15:00,12.7,8.0,30.35,ENE,69,2.0,4.0,81,0.00,,---,0.00,VWS V14.01,2013-02-02 13:15:00,
2013-02-02 08:18:00,11.3,7.2,30.37,ENE,74,2.0,4.0,83,0.00,,---,0.00,VWS V14.01,2013-02-02 13:18:00,
2013-02-02 08:20:00,12.8,8.1,30.34,ENE,63,0.0,5.0,81,0.00,,---,0.00,VWS V14.01,2013-02-02 13:20:00,
2013-02-02 08:24:00,11.5,7.3,30.37,NE,53,0.0,0.0,83,0.00,,---,0.00,VWS V14.01,2013-02-02 13:24:00,
2013-02-02 08:25:00,12.9,8.2,30.34,East,80,3.0,5.0,81,0.00,,---,0.00,VWS V14.01,2013-02-02 13:25:00,
2013-02-02 08:29:00,11.7,7.6,30.37,ENE,62,0.0,0.0,83,0.00,,---,0.00,VWS V14.01,2013-02-02 13:29:00,
2013-02-02 08:30:00,13.1,8.6,30.34,NE,55,2.0,5.0,82,0.00,,---,0.00,VWS V14.01,2013-02-02 13:30:00,
2013-02-02 08:34:00,11.9,7.5,30.36,WSW,250,0.0,0.0,82,0.00,,---,0.00,VWS V14.01,2013-02-02 13:34:00,
2013-02-02 08:35:00,13.3,8.8,30.35,ENE,67,0.0,4.0,82,0.00,,---,0.00,VWS V14.01,2013-02-02 13:35:00,
2013-02-02 08:39:00,12.1,7.7,30.36,West,281,1.0,1.0,82,0.00,,---,0.00,VWS V14.01,2013-02-02 13:39:00,
2013-02-02 08:40:00,13.5,9.0,30.34,ENE,74,2.0,4.0,82,0.00,,---,0.00,VWS V14.01,2013-02-02 13:40:00,
2013-02-02 08:44:00,12.2,7.8,30.36,NNE,30,0.0,0.0,82,0.00,,---,0.00,VWS V14.01,2013-02-02 13:44:00,
2013-02-02 08:45:00,13.7,9.8,30.34,ENE,59,1.0,3.0,84,0.00,,---,0.00,VWS V14.01,2013-02-02 13:45:00,
2013-02-02 08:49:00,12.4,8.0,30.36,ENE,57,0.0,0.0,82,0.00,,---,0.00,VWS V14.01,2013-02-02 13:49:00,
2013-02-02 08:50:00,13.9,10.0,30.33,ENE,65,0.0,4.0,84,0.00,,---,0.00,VWS V14.01,2013-02-02 13:50:00,
2013-02-02 08:54:00,12.5,7.8,30.36,ENE,61,0.0,1.0,81,0.00,,---,0.00,VWS V14.01,2013-02-02 13:54:00,
2013-02-02 08:55:00,13.9,9.7,30.33,ENE,61,1.0,4.0,83,0.00,,---,0.00,VWS V14.01,2013-02-02 13:55:00,
2013-02-02 08:59:00,12.7,8.3,30.35,ENE,66,2.0,3.0,82,0.00,,---,0.00,VWS V14.01,2013-02-02 13:59:00,
2013-02-02 09:00:00,14.0,9.8,30.33,ENE,64,0.0,6.0,83,0.00,,---,0.00,VWS V14.01,2013-02-02 14:00:00,
2013-02-02 09:04:00,12.7,8.0,30.35,ENE,69,0.0,2.0,81,0.00,,---,0.00,VWS V14.01,2013-02-02 14:04:00,
2013-02-02 09:05:00,14.1,9.9,30.33,East,101,0.0,7.0,83,0.00,,---,0.00,VWS V14.01,2013-02-02 14:05:00,
2013-02-02 09:09:00,12.8,8.1,30.34,ENE,63,0.0,0.0,81,0.00,,---,0.00,VWS V14.01,2013-02-02 14:09:00,
2013-02-02 09:10:00,14.3,10.1,30.33,NE,53,0.0,2.0,83,0.00,,---,0.00,VWS V14.01,2013-02-02 14:10:00,
2013-02-02 09:14:00,13.0,8.6,30.34,ENE,60,3.0,4.0,82,0.00,,---,0.00,VWS V14.01,2013-02-02 14:14:00,
2013-02-02 09:15:00,14.3,9.8,30.33,East,84,1.0,6.0,82,0.00,,---,0.00,VWS V14.01,2013-02-02 14:15:00,
2013-02-02 09:19:00,13.1,8.6,30.34,North,11,1.0,4.0,82,0.00,,---,0.00,VWS V14.01,2013-02-02 14:19:00,
2013-02-02 09:20:00,14.4,10.2,30.32,ENE,63,0.0,3.0,83,0.00,,---,0.00,VWS V14.01,2013-02-02 14:20:00,
2013-02-02 09:24:00,13.4,8.9,30.35,NNE,24,2.0,4.0,82,0.00,,---,0.00,VWS V14.01,2013-02-02 14:24:00,
2013-02-02 09:25:00,14.5,10.3,30.32,NE,37,0.0,3.0,83,0.00,,---,0.00,VWS V14.01,2013-02-02 14:25:00,
2013-02-02 09:29:00,13.5,9.0,30.34,NNE,18,3.0,3.0,82,0.00,,---,0.00,VWS V14.01,2013-02-02 14:29:00,
2013-02-02 09:30:00,14.6,10.9,30.31,ENE,67,0.0,2.0,85,0.00,,---,0.00,VWS V14.01,2013-02-02 14:30:00,
2013-02-02 09:34:00,13.8,9.6,30.34,ENE,59,0.0,4.0,83,0.00,,---,0.00,VWS V14.01,2013-02-02 14:34:00,
2013-02-02 09:35:00,14.7,11.0,30.31,NE,52,3.0,6.0,85,0.00,,---,0.00,VWS V14.01,2013-02-02 14:35:00,
2013-02-02 09:39:00,13.9,10.0,30.33,NE,53,3.0,4.0,84,0.00,,---,0.00,VWS V14.01,2013-02-02 14:39:00,
2013-02-02 09:40:00,14.6,11.2,30.31,NE,44,4.0,4.0,86,0.00,,---,0.00,VWS V14.01,2013-02-02 14:40:00,
2013-02-02 09:44:00,13.9,9.7,30.33,NNE,33,2.0,4.0,83,0.00,,---,0.00,VWS V14.01,2013-02-02 14:44:00,
2013-02-02 09:45:00,14.6,11.4,30.31,East,88,1.0,4.0,87,0.00,,---,0.00,VWS V14.01,2013-02-02 14:45:00,
2013-02-02 09:49:00,14.0,9.8,30.33,ESE,117,4.0,7.0,83,0.00,,---,0.00,VWS V14.01,2013-02-02 14:49:00,
2013-02-02 09:50:00,14.7,11.8,30.31,ENE,69,0.0,3.0,88,0.00,,---,0.00,VWS V14.01,2013-02-02 14:50:00,
2013-02-02 09:55:00,14.3,10.1,30.33,East,101,0.0,0.0,83,0.00,,---,0.00,VWS V14.01,2013-02-02 14:55:00,
2013-02-02 10:00:00,14.4,10.2,30.33,NE,51,2.0,2.0,83,0.00,,---,0.00,VWS V14.01,2013-02-02 15:00:00,
2013-02-02 10:05:00,14.3,10.1,30.32,ENE,63,0.0,3.0,83,0.00,,---,0.00,VWS V14.01,2013-02-02 15:05:00,
2013-02-02 10:10:00,14.4,10.2,30.32,ENE,78,2.0,2.0,83,0.00,,---,0.00,VWS V14.01,2013-02-02 15:10:00,
2013-02-02 10:15:00,14.5,10.6,30.32,ENE,76,1.0,2.0,84,0.00,,---,0.00,VWS V14.01,2013-02-02 15:15:00,
2013-02-02 10:20:00,14.7,11.0,30.31,NNW,329,2.0,3.0,85,0.00,,---,0.00,VWS V14.01,2013-02-02 15:20:00,
2013-02-02 10:25:00,14.6,10.9,30.31,NE,34,1.0,4.0,85,0.00,,---,0.00,VWS V14.01,2013-02-02 15:25:00,
2013-02-02 10:30:00,14.6,11.2,30.31,NE,56,2.0,4.0,86,0.00,,---,0.00,VWS V14.01,2013-02-02 15:30:00,
2013-02-02 10:35:00,14.7,11.5,30.31,NE,54,0.0,3.0,87,0.00,,---,0.00,VWS V14.01,2013-02-02 15:35:00,
2013-02-02 10:40:00,14.8,11.9,30.31,East,95,3.0,3.0,88,0.00,,---,0.00,VWS V14.01,2013-02-02 15:40:00,
2013-02-02 10:45:00,16.7,13.8,30.27,East,86,0.0,6.0,88,0.00,,---,0.00,VWS V14.01,2013-02-02 15:45:00,
2013-02-02 10:46:00,14.8,11.9,30.31,ENE,71,0.0,5.0,88,0.00,,---,0.00,VWS V14.01,2013-02-02 15:46:00,
2013-02-02 10:50:00,16.9,14.0,30.26,NNE,27,0.0,6.0,88,0.00,,---,0.00,VWS V14.01,2013-02-02 15:50:00,
2013-02-02 10:51:00,14.9,12.0,30.30,ENE,71,2.0,4.0,88,0.00,,---,0.00,VWS V14.01,2013-02-02 15:51:00,
2013-02-02 10:55:00,17.1,14.2,30.26,NE,45,5.0,6.0,88,0.00,,---,0.00,VWS V14.01,2013-02-02 15:55:00,
2013-02-02 10:56:00,15.0,12.4,30.30,NNE,33,0.0,5.0,89,0.00,,---,0.00,VWS V14.01,2013-02-02 15:56:00,
2013-02-02 11:00:00,17.3,14.4,30.25,ENE,69,3.0,6.0,88,0.00,,---,0.00,VWS V14.01,2013-02-02 16:00:00,
2013-02-02 11:01:00,15.2,12.3,30.30,ENE,75,0.0,5.0,88,0.00,,---,0.00,VWS V14.01,2013-02-02 16:01:00,
2013-02-02 11:05:00,17.5,14.6,30.26,NE,53,1.0,5.0,88,0.00,,---,0.00,VWS V14.01,2013-02-02 16:05:00,
2013-02-02 11:06:00,15.4,12.5,30.30,ENE,59,3.0,6.0,88,0.00,,---,0.00,VWS V14.01,2013-02-02 16:06:00,
2013-02-02 11:10:00,17.8,14.9,30.25,NE,41,0.0,6.0,88,0.00,,---,0.00,VWS V14.01,2013-02-02 16:10:00,
2013-02-02 11:11:00,15.5,12.6,30.28,ENE,58,0.0,6.0,88,0.00,,---,0.00,VWS V14.01,2013-02-02 16:11:00,
2013-02-02 11:15:00,18.0,14.8,30.24,East,88,2.0,8.0,87,0.00,,---,0.00,VWS V14.01,2013-02-02 16:15:00,
2013-02-02 11:16:00,15.7,12.8,30.28,ENE,69,1.0,5.0,88,0.00,,---,0.00,VWS V14.01,2013-02-02 16:16:00,
2013-02-02 11:20:00,18.3,15.1,30.24,NE,44,8.0,8.0,87,0.00,,---,0.00,VWS V14.01,2013-02-02 16:20:00,
2013-02-02 11:21:00,16.0,13.1,30.28,East,101,1.0,5.0,88,0.00,,---,0.00,VWS V14.01,2013-02-02 16:21:00,
2013-02-02 11:25:00,18.5,15.0,30.24,ENE,62,3.0,8.0,86,0.00,,---,0.00,VWS V14.01,2013-02-02 16:25:00,
2013-02-02 11:26:00,16.2,13.3,30.27,ENE,74,3.0,3.0,88,0.00,,---,0.00,VWS V14.01,2013-02-02 16:26:00,
2013-02-02 11:30:00,18.9,15.4,30.23,NE,43,2.0,3.0,86,0.00,,---,0.00,VWS V14.01,2013-02-02 16:30:00,
2013-02-02 11:31:00,16.5,13.6,30.27,NE,39,0.0,6.0,88,0.00,,---,0.00,VWS V14.01,2013-02-02 16:31:00,
2013-02-02 11:35:00,19.5,15.7,30.23,NNE,25,1.0,6.0,85,0.00,,---,0.00,VWS V14.01,2013-02-02 16:35:00,
2013-02-02 11:36:00,16.8,13.9,30.27,East,80,5.0,6.0,88,0.00,,---,0.00,VWS V14.01,2013-02-02 16:36:00,
2013-02-02 11:40:00,19.7,15.4,30.22,ENE,72,4.0,7.0,83,0.00,,---,0.00,VWS V14.01,2013-02-02 16:40:00,
2013-02-02 11:41:00,17.1,14.2,30.26,NE,39,2.0,5.0,88,0.00,,---,0.00,VWS V14.01,2013-02-02 16:41:00,
2013-02-02 11:45:00,19.8,15.2,30.22,SE,136,1.0,7.0,82,0.00,,---,0.00,VWS V14.01,2013-02-02 16:45:00,
2013-02-02 11:46:00,17.2,14.3,30.26,ENE,68,3.0,5.0,88,0.00,,---,0.00,VWS V14.01,2013-02-02 16:46:00,
2013-02-02 11:50:00,20.1,15.8,30.22,ENE,74,5.0,5.0,83,0.00,,---,0.00,VWS V14.01,2013-02-02 16:50:00,
2013-02-02 11:51:00,17.4,14.5,30.26,NE,37,0.0,4.0,88,0.00,,---,0.00,VWS V14.01,2013-02-02 16:51:00,
2013-02-02 11:55:00,20.3,16.2,30.21,NE,37,0.0,5.0,84,0.00,,---,0.00,VWS V14.01,2013-02-02 16:55:00,
2013-02-02 11:56:00,17.7,14.8,30.25,NE,52,2.0,6.0,88,0.00,,---,0.00,VWS V14.01,2013-02-02 16:56:00,
2013-02-02 12:00:00,20.4,16.1,30.21,North,349,0.0,10.0,83,0.00,,---,0.00,VWS V14.01,2013-02-02 17:00:00,
2013-02-02 12:01:00,18.0,15.1,30.25,ENE,69,1.0,8.0,88,0.00,,---,0.00,VWS V14.01,2013-02-02 17:01:00,
2013-02-02 12:05:00,20.4,16.1,30.21,NNE,26,0.0,5.0,83,0.00,,---,0.00,VWS V14.01,2013-02-02 17:05:00,
2013-02-02 12:06:00,18.1,14.9,30.24,NNE,32,2.0,4.0,87,0.00,,---,0.00,VWS V14.01,2013-02-02 17:06:00,
2013-02-02 12:10:00,20.6,16.3,30.20,NE,49,0.0,4.0,83,0.00,,---,0.00,VWS V14.01,2013-02-02 17:10:00,
2013-02-02 12:11:00,18.4,15.2,30.24,NE,46,2.0,8.0,87,0.00,,---,0.00,VWS V14.01,2013-02-02 17:11:00,
2013-02-02 12:15:00,20.7,16.6,30.20,ENE,69,2.0,5.0,84,0.00,,---,0.00,VWS V14.01,2013-02-02 17:15:00,
2013-02-02 12:16:00,18.7,15.2,30.23,NE,55,0.0,3.0,86,0.00,,---,0.00,VWS V14.01,2013-02-02 17:16:00,
2013-02-02 12:20:00,20.9,16.8,30.19,NE,48,0.0,4.0,84,0.00,,---,0.00,VWS V14.01,2013-02-02 17:20:00,
2013-02-02 12:22:00,19.3,15.8,30.23,ENE,76,4.0,6.0,86,0.00,,---,0.00,VWS V14.01,2013-02-02 17:22:00,
2013-02-02 12:25:00,21.0,16.9,30.19,ENE,72,0.0,6.0,84,0.00,,---,0.00,VWS V14.01,2013-02-02 17:25:00,
2013-02-02 12:27:00,19.7,15.7,30.23,ENE,77,1.0,7.0,84,0.00,,---,0.00,VWS V14.01,2013-02-02 17:27:00,
2013-02-02 12:30:00,21.0,16.9,30.18,NE,42,2.0,7.0,84,0.00,,---,0.00,VWS V14.01,2013-02-02 17:30:00,
2013-02-02 12:32:00,19.8,15.5,30.22,NNE,32,4.0,4.0,83,0.00,,---,0.00,VWS V14.01,2013-02-02 17:32:00,
2013-02-02 12:35:00,20.9,17.1,30.18,NNE,13,2.0,6.0,85,0.00,,---,0.00,VWS V14.01,2013-02-02 17:35:00,
2013-02-02 12:37:00,20.0,15.7,30.21,NNE,28,0.0,5.0,83,0.00,,---,0.00,VWS V14.01,2013-02-02 17:37:00,
2013-02-02 12:40:00,21.0,17.5,30.18,ENE,67,0.0,6.0,86,0.00,,---,0.00,VWS V14.01,2013-02-02 17:40:00,
2013-02-02 12:42:00,20.2,15.9,30.21,NE,34,0.0,5.0,83,0.00,,---,0.00,VWS V14.01,2013-02-02 17:42:00,
2013-02-02 12:45:00,21.1,17.8,30.18,NE,53,0.0,3.0,87,0.00,,---,0.00,VWS V14.01,2013-02-02 17:45:00,
2013-02-02 12:47:00,20.3,16.0,30.21,NNW,332,0.0,10.0,83,0.00,,---,0.00,VWS V14.01,2013-02-02 17:47:00,
2013-02-02 12:50:00,21.2,17.9,30.18,NE,46,0.0,4.0,87,0.00,,---,0.00,VWS V14.01,2013-02-02 17:50:00,
2013-02-02 12:52:00,20.4,16.1,30.21,NNE,15,0.0,5.0,83,0.00,,---,0.00,VWS V14.01,2013-02-02 17:52:00,
2013-02-02 12:55:00,21.2,17.9,30.17,North,355,0.0,5.0,87,0.00,,---,0.00,VWS V14.01,2013-02-02 17:55:00,
2013-02-02 12:57:00,20.6,16.3,30.20,ENE,65,0.0,3.0,83,0.00,,---,0.00,VWS V14.01,2013-02-02 17:57:00,
2013-02-02 13:00:00,21.4,18.4,30.17,NE,48,0.0,3.0,88,0.00,,---,0.00,VWS V14.01,2013-02-02 18:00:00,
2013-02-02 13:02:00,20.7,16.4,30.20,ENE,69,3.0,3.0,83,0.00,,---,0.00,VWS V14.01,2013-02-02 18:02:00,
2013-02-02 13:05:00,21.5,18.5,30.16,ENE,74,0.0,3.0,88,0.00,,---,0.00,VWS V14.01,2013-02-02 18:05:00,
2013-02-02 13:07:00,20.8,16.7,30.19,NE,46,0.0,4.0,84,0.00,,---,0.00,VWS V14.01,2013-02-02 18:07:00,
2013-02-02 13:10:00,21.5,18.5,30.15,NE,54,0.0,7.0,88,0.00,,---,0.00,VWS V14.01,2013-02-02 18:10:00,
2013-02-02 13:12:00,20.9,16.8,30.19,ENE,61,0.0,6.0,84,0.00,,---,0.00,VWS V14.01,2013-02-02 18:12:00,
2013-02-02 13:15:00,21.5,18.5,30.16,NE,55,0.0,5.0,88,0.00,,---,0.00,VWS V14.01,2013-02-02 18:15:00,
2013-02-02 13:17:00,21.1,17.0,30.18,NE,56,4.0,7.0,84,0.00,,---,0.00,VWS V14.01,2013-02-02 18:17:00,
2013-02-02 13:20:00,21.7,18.7,30.15,NE,55,1.0,3.0,88,0.00,,---,0.00,VWS V14.01,2013-02-02 18:20:00,
2013-02-02 13:22:00,21.0,17.2,30.18,NE,53,0.0,6.0,85,0.00,,---,0.00,VWS V14.01,2013-02-02 18:22:00,
2013-02-02 13:25:00,21.8,18.5,30.15,ENE,67,0.0,4.0,87,0.00,,---,0.00,VWS V14.01,2013-02-02 18:25:00,
2013-02-02 13:27:00,21.0,17.5,30.18,ENE,65,2.0,6.0,86,0.00,,---,0.00,VWS V14.01,2013-02-02 18:27:00,
2013-02-02 13:30:00,21.8,18.5,30.15,ENE,65,0.0,5.0,87,0.00,,---,0.00,VWS V14.01,2013-02-02 18:30:00,
2013-02-02 13:32:00,21.1,17.8,30.18,ENE,65,2.0,3.0,87,0.00,,---,0.00,VWS V14.01,2013-02-02 18:32:00,
2013-02-02 13:35:00,21.9,18.6,30.14,ENE,66,0.0,2.0,87,0.00,,---,0.00,VWS V14.01,2013-02-02 18:35:00,
2013-02-02 13:37:00,21.2,17.9,30.17,ENE,69,2.0,3.0,87,0.00,,---,0.00,VWS V14.01,2013-02-02 18:37:00,
2013-02-02 13:40:00,22.0,18.7,30.14,ENE,67,1.0,3.0,87,0.00,,---,0.00,VWS V14.01,2013-02-02 18:40:00,
2013-02-02 13:42:00,21.2,17.9,30.17,ENE,63,0.0,5.0,87,0.00,,---,0.00,VWS V14.01,2013-02-02 18:42:00,
2013-02-02 13:45:00,22.1,18.8,30.15,NNE,32,0.0,2.0,87,0.00,,---,0.00,VWS V14.01,2013-02-02 18:45:00,
2013-02-02 13:47:00,21.4,18.4,30.17,NE,48,0.0,3.0,88,0.00,,---,0.00,VWS V14.01,2013-02-02 18:47:00,
2013-02-02 13:50:00,22.1,18.8,30.14,ESE,109,0.0,3.0,87,0.00,,---,0.00,VWS V14.01,2013-02-02 18:50:00,
2013-02-02 13:53:00,21.5,18.5,30.16,ENE,74,0.0,3.0,88,0.00,,---,0.00,VWS V14.01,2013-02-02 18:53:00,
2013-02-02 13:55:00,22.4,19.4,30.14,ENE,74,1.0,3.0,88,0.00,,---,0.00,VWS V14.01,2013-02-02 18:55:00,
2013-02-02 13:58:00,21.5,18.5,30.15,NE,54,0.0,7.0,88,0.00,,---,0.00,VWS V14.01,2013-02-02 18:58:00,
2013-02-02 14:00:00,22.6,19.3,30.14,NE,47,1.0,4.0,87,0.00,,---,0.00,VWS V14.01,2013-02-02 19:00:00,
2013-02-02 14:03:00,21.5,18.5,30.16,NE,55,2.0,5.0,88,0.00,,---,0.00,VWS V14.01,2013-02-02 19:03:00,
2013-02-02 14:05:00,22.5,19.2,30.14,NE,42,0.0,6.0,87,0.00,,---,0.00,VWS V14.01,2013-02-02 19:05:00,
2013-02-02 14:08:00,21.7,18.7,30.15,NE,55,0.0,3.0,88,0.00,,---,0.00,VWS V14.01,2013-02-02 19:08:00,
2013-02-02 14:10:00,22.5,19.2,30.14,NE,38,0.0,4.0,87,0.00,,---,0.00,VWS V14.01,2013-02-02 19:10:00,
2013-02-02 14:13:00,21.8,18.5,30.15,East,92,0.0,4.0,87,0.00,,---,0.00,VWS V14.01,2013-02-02 19:13:00,
2013-02-02 14:15:00,22.5,19.2,30.14,SSW,202,0.0,5.0,87,0.00,,---,0.00,VWS V14.01,2013-02-02 19:15:00,
2013-02-02 14:18:00,21.9,18.6,30.15,ENE,64,0.0,5.0,87,0.00,,---,0.00,VWS V14.01,2013-02-02 19:18:00,
2013-02-02 14:20:00,22.5,19.2,30.14,NNE,27,0.0,6.0,87,0.00,,---,0.00,VWS V14.01,2013-02-02 19:20:00,
2013-02-02 14:23:00,21.9,18.6,30.14,ENE,66,0.0,2.0,87,0.00,,---,0.00,VWS V14.01,2013-02-02 19:23:00,
2013-02-02 14:25:00,22.5,19.2,30.13,NE,48,0.0,5.0,87,0.00,,---,0.00,VWS V14.01,2013-02-02 19:25:00,
2013-02-02 14:28:00,22.0,18.7,30.14,ENE,67,0.0,3.0,87,0.00,,---,0.00,VWS V14.01,2013-02-02 19:28:00,
2013-02-02 14:30:00,22.5,19.5,30.13,ENE,72,1.0,6.0,88,0.00,,---,0.00,VWS V14.01,2013-02-02 19:30:00,
2013-02-02 14:33:00,22.1,18.8,30.15,NNE,32,0.0,2.0,87,0.00,,---,0.00,VWS V14.01,2013-02-02 19:33:00,
2013-02-02 14:35:00,22.5,19.5,30.13,ENE,72,1.0,2.0,88,0.00,,---,0.00,VWS V14.01,2013-02-02 19:35:00,
2013-02-02 14:38:00,22.2,18.9,30.14,ESE,109,0.0,3.0,87,0.00,,---,0.00,VWS V14.01,2013-02-02 19:38:00,
2013-02-02 14:40:00,22.5,19.5,30.12,ENE,78,3.0,6.0,88,0.00,,---,0.00,VWS V14.01,2013-02-02 19:40:00,
2013-02-02 14:43:00,22.4,19.4,30.14,ENE,74,0.0,3.0,88,0.00,,---,0.00,VWS V14.01,2013-02-02 19:43:00,
2013-02-02 14:45:00,22.3,19.6,30.13,ENE,70,0.0,4.0,89,0.00,,---,0.00,VWS V14.01,2013-02-02 19:45:00,
2013-02-02 14:48:00,22.6,19.3,30.14,NE,46,1.0,4.0,87,0.00,,---,0.00,VWS V14.01,2013-02-02 19:48:00,
2013-02-02 14:50:00,22.3,19.6,30.13,ENE,63,1.0,4.0,89,0.00,,---,0.00,VWS V14.01,2013-02-02 19:50:00,
2013-02-02 14:53:00,22.5,19.2,30.14,NE,42,3.0,6.0,87,0.00,,---,0.00,VWS V14.01,2013-02-02 19:53:00,
2013-02-02 14:55:00,22.3,19.6,30.13,ENE,69,0.0,2.0,89,0.00,,---,0.00,VWS V14.01,2013-02-02 19:55:00,
2013-02-02 14:58:00,22.5,19.2,30.14,NE,38,0.0,4.0,87,0.00,,---,0.00,VWS V14.01,2013-02-02 19:58:00,
2013-02-02 15:00:00,22.3,19.8,30.13,ENE,68,0.0,2.0,90,0.00,,---,0.00,VWS V14.01,2013-02-02 20:00:00,
2013-02-02 15:03:00,22.5,19.2,30.14,East,91,0.0,5.0,87,0.00,,---,0.00,VWS V14.01,2013-02-02 20:03:00,
2013-02-02 15:05:00,22.4,19.9,30.13,ENE,67,0.0,3.0,90,0.00,,---,0.00,VWS V14.01,2013-02-02 20:05:00,
2013-02-02 15:08:00,22.5,19.2,30.14,NNE,27,1.0,6.0,87,0.00,,---,0.00,VWS V14.01,2013-02-02 20:08:00,
2013-02-02 15:10:00,22.4,19.9,30.13,ENE,67,0.0,2.0,90,0.00,,---,0.00,VWS V14.01,2013-02-02 20:10:00,
2013-02-02 15:13:00,22.5,19.2,30.13,NE,48,0.0,5.0,87,0.00,,---,0.00,VWS V14.01,2013-02-02 20:13:00,
2013-02-02 15:15:00,22.4,19.9,30.13,ENE,68,0.0,4.0,90,0.00,,---,0.00,VWS V14.01,2013-02-02 20:15:00,
2013-02-02 15:18:00,22.5,19.5,30.13,ENE,72,1.0,6.0,88,0.00,,---,0.00,VWS V14.01,2013-02-02 20:18:00,
2013-02-02 15:20:00,22.4,20.2,30.13,ENE,63,0.0,3.0,91,0.00,,---,0.00,VWS V14.01,2013-02-02 20:20:00,
2013-02-02 15:23:00,22.5,19.5,30.13,ENE,72,1.0,2.0,88,0.00,,---,0.00,VWS V14.01,2013-02-02 20:23:00,
2013-02-02 15:25:00,22.4,20.2,30.13,ENE,63,0.0,0.0,91,0.00,,---,0.00,VWS V14.01,2013-02-02 20:25:00,
2013-02-02 15:28:00,22.5,19.5,30.13,ENE,78,2.0,3.0,88,0.00,,---,0.00,VWS V14.01,2013-02-02 20:28:00,
2013-02-02 15:30:00,22.5,20.5,30.12,ENE,63,0.0,0.0,92,0.00,,---,0.00,VWS V14.01,2013-02-02 20:30:00,
2013-02-02 15:33:00,22.3,19.6,30.13,ENE,70,0.0,0.0,89,0.00,,---,0.00,VWS V14.01,2013-02-02 20:33:00,
2013-02-02 15:35:00,22.5,20.5,30.12,ENE,63,0.0,0.0,92,0.00,,---,0.00,VWS V14.01,2013-02-02 20:35:00,
2013-02-02 15:38:00,22.3,19.6,30.13,ENE,63,1.0,1.0,89,0.00,,---,0.00,VWS V14.01,2013-02-02 20:38:00,
2013-02-02 15:40:00,22.6,20.6,30.12,ENE,68,0.0,2.0,92,0.00,,---,0.00,VWS V14.01,2013-02-02 20:40:00,
2013-02-02 15:44:00,22.3,19.6,30.13,ENE,69,0.0,0.0,89,0.00,,---,0.00,VWS V14.01,2013-02-02 20:44:00,
2013-02-02 15:45:00,22.7,20.7,30.12,ENE,68,0.0,1.0,92,0.00,,---,0.00,VWS V14.01,2013-02-02 20:45:00,
2013-02-02 15:49:00,22.3,19.8,30.13,ENE,68,0.0,0.0,90,0.00,,---,0.00,VWS V14.01,2013-02-02 20:49:00,
2013-02-02 15:50:00,22.6,20.6,30.12,ENE,68,0.0,2.0,92,0.00,,---,0.00,VWS V14.01,2013-02-02 20:50:00,
2013-02-02 15:54:00,22.4,19.9,30.13,ENE,67,0.0,1.0,90,0.00,,---,0.00,VWS V14.01,2013-02-02 20:54:00,
2013-02-02 15:55:00,22.6,20.6,30.12,ENE,59,0.0,3.0,92,0.00,,---,0.00,VWS V14.01,2013-02-02 20:55:00,
2013-02-02 15:59:00,22.4,19.9,30.13,ENE,67,0.0,0.0,90,0.00,,---,0.00,VWS V14.01,2013-02-02 20:59:00,
2013-02-02 16:00:00,22.6,20.6,30.12,ENE,59,0.0,0.0,92,0.00,,---,0.00,VWS V14.01,2013-02-02 21:00:00,
2013-02-02 16:04:00,22.4,19.9,30.12,ENE,68,0.0,0.0,90,0.00,,---,0.00,VWS V14.01,2013-02-02 21:04:00,
2013-02-02 16:05:00,22.7,20.7,30.12,ENE,59,0.0,0.0,92,0.00,,---,0.00,VWS V14.01,2013-02-02 21:05:00,
2013-02-02 16:09:00,22.4,20.2,30.13,ENE,63,0.0,0.0,91,0.00,,---,0.00,VWS V14.01,2013-02-02 21:09:00,
2013-02-02 16:10:00,22.7,20.7,30.12,ENE,59,0.0,2.0,92,0.00,,---,0.00,VWS V14.01,2013-02-02 21:10:00,
2013-02-02 16:14:00,22.4,20.2,30.12,ENE,63,0.0,0.0,91,0.00,,---,0.00,VWS V14.01,2013-02-02 21:14:00,
2013-02-02 16:15:00,22.6,20.6,30.13,ENE,61,0.0,4.0,92,0.00,,---,0.00,VWS V14.01,2013-02-02 21:15:00,
2013-02-02 16:19:00,22.5,20.5,30.12,ENE,63,0.0,0.0,92,0.00,,---,0.00,VWS V14.01,2013-02-02 21:19:00,
2013-02-02 16:20:00,22.7,20.7,30.13,ENE,62,0.0,1.0,92,0.00,,---,0.00,VWS V14.01,2013-02-02 21:20:00,
2013-02-02 16:24:00,22.5,20.5,30.12,ENE,63,0.0,0.0,92,0.00,,---,0.00,VWS V14.01,2013-02-02 21:24:00,
2013-02-02 16:25:00,22.7,20.7,30.12,ENE,62,0.0,0.0,92,0.00,,---,0.00,VWS V14.01,2013-02-02 21:25:00,
2013-02-02 16:29:00,22.6,20.6,30.12,ENE,68,0.0,0.0,92,0.00,,---,0.00,VWS V14.01,2013-02-02 21:29:00,
2013-02-02 16:30:00,22.7,20.7,30.12,ENE,62,0.0,0.0,92,0.00,,---,0.00,VWS V14.01,2013-02-02 21:30:00,
2013-02-02 16:34:00,22.6,20.6,30.12,ENE,68,0.0,0.0,92,0.00,,---,0.00,VWS V14.01,2013-02-02 21:34:00,
2013-02-02 16:35:00,22.7,20.7,30.12,ENE,62,0.0,0.0,92,0.00,,---,0.00,VWS V14.01,2013-02-02 21:35:00,
2013-02-02 16:39:00,22.6,20.6,30.12,ENE,68,0.0,0.0,92,0.00,,---,0.00,VWS V14.01,2013-02-02 21:39:00,
2013-02-02 16:40:00,22.6,20.6,30.12,ENE,62,0.0,0.0,92,0.00,,---,0.00,VWS V14.01,2013-02-02 21:40:00,
2013-02-02 16:44:00,22.6,20.6,30.12,ENE,59,0.0,0.0,92,0.00,,---,0.00,VWS V14.01,2013-02-02 21:44:00,
2013-02-02 16:45:00,22.6,20.6,30.12,ENE,61,0.0,0.0,92,0.00,,---,0.00,VWS V14.01,2013-02-02 21:45:00,
2013-02-02 16:49:00,22.6,20.6,30.12,ENE,59,0.0,0.0,92,0.00,,---,0.00,VWS V14.01,2013-02-02 21:49:00,
2013-02-02 16:50:00,22.6,20.6,30.12,ENE,62,0.0,0.0,92,0.00,,---,0.00,VWS V14.01,2013-02-02 21:50:00,
2013-02-02 16:54:00,22.6,20.6,30.12,ENE,59,0.0,0.0,92,0.00,,---,0.00,VWS V14.01,2013-02-02 21:54:00,
2013-02-02 16:55:00,22.6,20.6,30.12,ENE,62,0.0,0.0,92,0.00,,---,0.00,VWS V14.01,2013-02-02 21:55:00,
2013-02-02 16:59:00,22.7,20.7,30.12,ENE,61,4.0,4.0,92,0.00,,---,0.00,VWS V14.01,2013-02-02 21:59:00,
2013-02-02 17:00:00,22.5,20.8,30.12,ENE,62,0.0,0.0,93,0.00,,---,0.00,VWS V14.01,2013-02-02 22:00:00,
2013-02-02 17:04:00,22.6,20.6,30.13,ENE,62,0.0,0.0,92,0.00,,---,0.00,VWS V14.01,2013-02-02 22:04:00,
2013-02-02 17:05:00,22.5,20.8,30.12,ENE,62,0.0,0.0,93,0.00,,---,0.00,VWS V14.01,2013-02-02 22:05:00,
2013-02-02 17:09:00,22.6,20.6,30.12,ENE,61,0.0,0.0,92,0.00,,---,0.00,VWS V14.01,2013-02-02 22:09:00,
2013-02-02 17:10:00,22.5,20.8,30.12,ENE,61,0.0,0.0,93,0.00,,---,0.00,VWS V14.01,2013-02-02 22:10:00,
2013-02-02 17:14:00,22.7,20.7,30.12,ENE,62,0.0,0.0,92,0.00,,---,0.00,VWS V14.01,2013-02-02 22:14:00,
2013-02-02 17:15:00,22.5,20.8,30.12,ENE,62,0.0,0.0,93,0.00,,---,0.00,VWS V14.01,2013-02-02 22:15:00,
2013-02-02 17:19:00,22.7,20.7,30.12,ENE,62,0.0,0.0,92,0.00,,---,0.00,VWS V14.01,2013-02-02 22:19:00,
2013-02-02 17:20:00,22.5,20.8,30.12,ENE,61,0.0,0.0,93,0.00,,---,0.00,VWS V14.01,2013-02-02 22:20:00,
2013-02-02 17:25:00,22.6,20.6,30.12,ENE,61,0.0,0.0,92,0.00,,---,0.00,VWS V14.01,2013-02-02 22:25:00,
2013-02-02 17:30:00,22.6,20.6,30.12,ENE,62,0.0,0.0,92,0.00,,---,0.00,VWS V14.01,2013-02-02 22:30:00,
2013-02-02 17:35:00,22.6,20.6,30.12,ENE,61,0.0,0.0,92,0.00,,---,0.00,VWS V14.01,2013-02-02 22:35:00,
2013-02-02 17:40:00,22.6,20.9,30.12,ENE,62,0.0,0.0,93,0.00,,---,0.00,VWS V14.01,2013-02-02 22:40:00,
2013-02-02 17:45:00,22.5,20.8,30.12,ENE,62,0.0,0.0,93,0.00,,---,0.00,VWS V14.01,2013-02-02 22:45:00,
2013-02-02 17:50:00,22.5,20.8,30.12,ENE,62,0.0,0.0,93,0.00,,---,0.00,VWS V14.01,2013-02-02 22:50:00,
2013-02-02 17:55:00,22.5,20.8,30.12,ENE,61,0.0,0.0,93,0.00,,---,0.00,VWS V14.01,2013-02-02 22:55:00,
2013-02-02 18:00:00,22.5,20.8,30.13,ENE,61,0.0,0.0,93,0.00,,---,0.00,VWS V14.01,2013-02-02 23:00:00,
2013-02-02 18:05:00,22.5,20.8,30.12,ENE,62,0.0,0.0,93,0.00,,---,0.00,VWS V14.01,2013-02-02 23:05:00,
2013-02-02 18:10:00,22.4,20.7,30.13,ENE,62,0.0,0.0,93,0.00,,---,0.00,VWS V14.01,2013-02-02 23:10:00,
2013-02-02 18:15:00,22.4,20.7,30.13,ENE,62,0.0,0.0,93,0.00,,---,0.00,VWS V14.01,2013-02-02 23:15:00,
2013-02-02 18:20:00,22.4,20.7,30.13,ENE,61,0.0,0.0,93,0.00,,---,0.00,VWS V14.01,2013-02-02 23:20:00,
2013-02-02 18:25:00,22.4,20.9,30.13,ENE,61,0.0,0.0,94,0.00,,---,0.00,VWS V14.01,2013-02-02 23:25:00,
2013-02-02 18:30:00,22.4,20.9,30.13,ENE,62,0.0,0.0,94,0.00,,---,0.00,VWS V14.01,2013-02-02 23:30:00,
2013-02-02 18:35:00,22.4,20.9,30.13,ENE,62,0.0,0.0,94,0.00,,---,0.00,VWS V14.01,2013-02-02 23:35:00,
2013-02-02 18:40:00,22.4,20.9,30.13,ENE,61,0.0,0.0,94,0.00,,---,0.00,VWS V14.01,2013-02-02 23:40:00,
2013-02-02 18:45:00,22.4,20.9,30.13,ENE,61,0.0,0.0,94,0.00,,---,0.00,VWS V14.01,2013-02-02 23:45:00,
2013-02-02 18:50:00,22.4,20.9,30.13,ENE,61,0.0,0.0,94,0.00,,---,0.00,VWS V14.01,2013-02-02 23:50:00,
2013-02-02 18:55:00,22.4,20.9,30.12,ENE,62,0.0,0.0,94,0.00,,---,0.00,VWS V14.01,2013-02-02 23:55:00,
2013-02-02 19:00:00,22.4,20.9,30.12,ENE,61,0.0,0.0,94,0.00,,---,0.00,VWS V14.01,2013-02-03 00:00:00,
2013-02-02 19:05:00,22.4,20.9,30.12,ENE,62,0.0,0.0,94,0.00,,---,0.00,VWS V14.01,2013-02-03 00:05:00,
2013-02-02 19:10:00,22.4,20.9,30.13,ENE,61,0.0,0.0,94,0.00,,---,0.00,VWS V14.01,2013-02-03 00:10:00,
2013-02-02 19:15:00,22.3,20.8,30.13,ENE,62,0.0,0.0,94,0.00,,---,0.00,VWS V14.01,2013-02-03 00:15:00,
2013-02-02 19:20:00,21.9,20.7,30.13,ENE,62,0.0,0.0,95,0.00,,---,0.00,VWS V14.01,2013-02-03 00:20:00,
2013-02-02 19:21:00,22.3,20.8,30.13,ENE,61,0.0,0.0,94,0.00,,---,0.00,VWS V14.01,2013-02-03 00:21:00,
2013-02-02 19:25:00,21.9,20.7,30.13,ENE,61,0.0,0.0,95,0.00,,---,0.00,VWS V14.01,2013-02-03 00:25:00,
2013-02-02 19:26:00,22.3,20.8,30.12,ENE,62,0.0,0.0,94,0.00,,---,0.00,VWS V14.01,2013-02-03 00:26:00,
2013-02-02 19:30:00,21.9,20.7,30.13,ENE,62,0.0,0.0,95,0.00,,---,0.00,VWS V14.01,2013-02-03 00:30:00,
2013-02-02 19:31:00,22.3,20.8,30.13,ENE,61,0.0,0.0,94,0.00,,---,0.00,VWS V14.01,2013-02-03 00:31:00,
2013-02-02 19:35:00,21.9,20.7,30.13,ENE,61,0.0,0.0,95,0.00,,---,0.00,VWS V14.01,2013-02-03 00:35:00,
2013-02-02 19:36:00,22.2,20.7,30.13,ENE,62,0.0,0.0,94,0.00,,---,0.00,VWS V14.01,2013-02-03 00:36:00,
2013-02-02 19:40:00,21.9,20.7,30.13,ENE,61,0.0,0.0,95,0.00,,---,0.00,VWS V14.01,2013-02-03 00:40:00,
2013-02-02 19:41:00,22.2,20.7,30.13,ENE,61,0.0,0.0,94,0.00,,---,0.00,VWS V14.01,2013-02-03 00:41:00,
2013-02-02 19:45:00,21.9,20.7,30.13,ENE,62,0.0,0.0,95,0.00,,---,0.00,VWS V14.01,2013-02-03 00:45:00,
2013-02-02 19:46:00,22.1,20.6,30.14,ENE,62,0.0,0.0,94,0.00,,---,0.00,VWS V14.01,2013-02-03 00:46:00,
2013-02-02 19:50:00,21.9,20.7,30.12,ENE,62,0.0,0.0,95,0.00,,---,0.00,VWS V14.01,2013-02-03 00:50:00,
2013-02-02 19:51:00,22.1,20.6,30.13,ENE,62,0.0,0.0,94,0.00,,---,0.00,VWS V14.01,2013-02-03 00:51:00,
2013-02-02 19:55:00,21.9,20.7,30.13,ENE,62,0.0,0.0,95,0.00,,---,0.00,VWS V14.01,2013-02-03 00:55:00,
2013-02-02 19:56:00,22.0,20.5,30.13,ENE,61,0.0,0.0,94,0.00,,---,0.00,VWS V14.01,2013-02-03 00:56:00,
2013-02-02 20:00:00,21.8,20.6,30.13,ENE,62,0.0,0.0,95,0.00,,---,0.00,VWS V14.01,2013-02-03 01:00:00,
2013-02-02 20:01:00,21.9,20.4,30.13,ENE,62,0.0,0.0,94,0.00,,---,0.00,VWS V14.01,2013-02-03 01:01:00,
2013-02-02 20:05:00,21.8,20.6,30.12,ENE,62,0.0,0.0,95,0.00,,---,0.00,VWS V14.01,2013-02-03 01:05:00,
2013-02-02 20:06:00,21.9,20.7,30.13,ENE,62,0.0,0.0,95,0.00,,---,0.00,VWS V14.01,2013-02-03 01:06:00,
2013-02-02 20:10:00,21.8,20.6,30.13,ENE,61,0.0,0.0,95,0.00,,---,0.00,VWS V14.01,2013-02-03 01:10:00,
2013-02-02 20:11:00,21.9,20.7,30.13,ENE,62,0.0,0.0,95,0.00,,---,0.00,VWS V14.01,2013-02-03 01:11:00,
2013-02-02 20:15:00,21.8,20.6,30.13,ENE,61,0.0,0.0,95,0.00,,---,0.00,VWS V14.01,2013-02-03 01:15:00,
2013-02-02 20:16:00,21.9,20.7,30.13,ENE,62,0.0,0.0,95,0.00,,---,0.00,VWS V14.01,2013-02-03 01:16:00,
2013-02-02 20:20:00,21.8,20.6,30.13,ENE,62,0.0,0.0,95,0.00,,---,0.00,VWS V14.01,2013-02-03 01:20:00,
2013-02-02 20:21:00,21.9,20.7,30.13,ENE,62,0.0,0.0,95,0.00,,---,0.00,VWS V14.01,2013-02-03 01:21:00,
2013-02-02 20:25:00,21.8,20.6,30.13,ENE,62,0.0,0.0,95,0.00,,---,0.00,VWS V14.01,2013-02-03 01:25:00,
2013-02-02 20:26:00,21.9,20.7,30.13,ENE,62,0.0,0.0,95,0.00,,---,0.00,VWS V14.01,2013-02-03 01:26:00,
2013-02-02 20:30:00,21.8,20.6,30.13,ENE,61,0.0,0.0,95,0.00,,---,0.00,VWS V14.01,2013-02-03 01:30:00,
2013-02-02 20:31:00,22.0,20.8,30.13,ENE,62,0.0,0.0,95,0.00,,---,0.00,VWS V14.01,2013-02-03 01:31:00,
2013-02-02 20:35:00,21.8,20.6,30.13,ENE,62,0.0,0.0,95,0.00,,---,0.00,VWS V14.01,2013-02-03 01:35:00,
2013-02-02 20:36:00,21.9,20.7,30.13,ENE,61,0.0,0.0,95,0.00,,---,0.00,VWS V14.01,2013-02-03 01:36:00,
2013-02-02 20:40:00,21.9,20.7,30.13,ENE,62,0.0,0.0,95,0.00,,---,0.00,VWS V14.01,2013-02-03 01:40:00,
2013-02-02 20:41:00,21.9,20.7,30.12,ENE,61,0.0,0.0,95,0.00,,---,0.00,VWS V14.01,2013-02-03 01:41:00,
2013-02-02 20:45:00,21.9,20.7,30.12,ENE,62,0.0,0.0,95,0.00,,---,0.00,VWS V14.01,2013-02-03 01:45:00,
2013-02-02 20:46:00,21.8,20.6,30.13,ENE,62,0.0,0.0,95,0.00,,---,0.00,VWS V14.01,2013-02-03 01:46:00,
2013-02-02 20:50:00,22.0,21.0,30.13,ENE,62,0.0,0.0,96,0.00,,---,0.00,VWS V14.01,2013-02-03 01:50:00,
2013-02-02 20:51:00,21.8,20.6,30.13,ENE,61,0.0,0.0,95,0.00,,---,0.00,VWS V14.01,2013-02-03 01:51:00,
2013-02-02 20:55:00,22.0,20.8,30.12,ENE,62,0.0,0.0,95,0.00,,---,0.00,VWS V14.01,2013-02-03 01:55:00,
2013-02-02 20:56:00,21.8,20.6,30.13,ENE,62,0.0,0.0,95,0.00,,---,0.00,VWS V14.01,2013-02-03 01:56:00,
2013-02-02 21:00:00,22.0,20.8,30.12,ENE,62,0.0,0.0,95,0.00,,---,0.00,VWS V14.01,2013-02-03 02:00:00,
2013-02-02 21:01:00,21.8,20.6,30.12,ENE,62,0.0,0.0,95,0.00,,---,0.00,VWS V14.01,2013-02-03 02:01:00,
2013-02-02 21:05:00,22.0,20.8,30.12,ENE,62,0.0,0.0,95,0.00,,---,0.00,VWS V14.01,2013-02-03 02:05:00,
2013-02-02 21:06:00,21.8,20.6,30.13,ENE,62,0.0,0.0,95,0.00,,---,0.00,VWS V14.01,2013-02-03 02:06:00,
2013-02-02 21:10:00,22.0,20.8,30.12,ENE,61,0.0,0.0,95,0.00,,---,0.00,VWS V14.01,2013-02-03 02:10:00,
2013-02-02 21:11:00,21.8,20.6,30.13,ENE,62,0.0,0.0,95,0.00,,---,0.00,VWS V14.01,2013-02-03 02:11:00,
2013-02-02 21:15:00,22.0,20.8,30.12,ENE,62,0.0,0.0,95,0.00,,---,0.00,VWS V14.01,2013-02-03 02:15:00,
2013-02-02 21:17:00,21.8,20.6,30.13,ENE,62,0.0,0.0,95,0.00,,---,0.00,VWS V14.01,2013-02-03 02:17:00,
2013-02-02 21:20:00,22.0,20.8,30.12,ENE,62,0.0,0.0,95,0.00,,---,0.00,VWS V14.01,2013-02-03 02:20:00,
2013-02-02 21:22:00,21.8,20.6,30.13,ENE,61,0.0,0.0,95,0.00,,---,0.00,VWS V14.01,2013-02-03 02:22:00,
2013-02-02 21:25:00,22.0,20.8,30.11,ENE,62,0.0,0.0,95,0.00,,---,0.00,VWS V14.01,2013-02-03 02:25:00,
2013-02-02 21:27:00,21.8,20.6,30.13,ENE,62,0.0,0.0,95,0.00,,---,0.00,VWS V14.01,2013-02-03 02:27:00,
2013-02-02 21:30:00,22.0,20.8,30.11,ENE,62,0.0,0.0,95,0.00,,---,0.00,VWS V14.01,2013-02-03 02:30:00,
2013-02-02 21:32:00,21.8,20.6,30.13,ENE,61,0.0,0.0,95,0.00,,---,0.00,VWS V14.01,2013-02-03 02:32:00,
2013-02-02 21:35:00,21.9,20.7,30.11,ENE,62,0.0,0.0,95,0.00,,---,0.00,VWS V14.01,2013-02-03 02:35:00,
2013-02-02 21:37:00,21.9,20.7,30.13,ENE,62,0.0,0.0,95,0.00,,---,0.00,VWS V14.01,2013-02-03 02:37:00,
2013-02-02 21:40:00,21.9,20.7,30.11,ENE,62,0.0,0.0,95,0.00,,---,0.00,VWS V14.01,2013-02-03 02:40:00,
2013-02-02 21:42:00,22.0,20.8,30.13,ENE,61,0.0,0.0,95,0.00,,---,0.00,VWS V14.01,2013-02-03 02:42:00,
2013-02-02 21:45:00,21.9,20.7,30.11,ENE,62,0.0,0.0,95,0.00,,---,0.00,VWS V14.01,2013-02-03 02:45:00,
2013-02-02 21:47:00,22.0,20.8,30.12,ENE,62,0.0,0.0,95,0.00,,---,0.00,VWS V14.01,2013-02-03 02:47:00,
2013-02-02 21:50:00,21.9,20.7,30.11,ENE,61,0.0,0.0,95,0.00,,---,0.00,VWS V14.01,2013-02-03 02:50:00,
2013-02-02 21:52:00,22.0,20.8,30.12,ENE,61,0.0,0.0,95,0.00,,---,0.00,VWS V14.01,2013-02-03 02:52:00,
2013-02-02 21:55:00,21.9,20.7,30.11,ENE,62,0.0,0.0,95,0.00,,---,0.00,VWS V14.01,2013-02-03 02:55:00,
2013-02-02 21:57:00,22.0,20.8,30.12,ENE,62,0.0,0.0,95,0.00,,---,0.00,VWS V14.01,2013-02-03 02:57:00,
2013-02-02 22:00:00,21.8,20.6,30.11,ENE,61,0.0,0.0,95,0.00,,---,0.00,VWS V14.01,2013-02-03 03:00:00,
2013-02-02 22:02:00,22.0,20.8,30.12,ENE,62,0.0,0.0,95,0.00,,---,0.00,VWS V14.01,2013-02-03 03:02:00,
2013-02-02 22:05:00,21.8,20.6,30.11,ENE,62,0.0,0.0,95,0.00,,---,0.00,VWS V14.01,2013-02-03 03:05:00,
2013-02-02 22:07:00,22.0,20.8,30.12,ENE,62,0.0,0.0,95,0.00,,---,0.00,VWS V14.01,2013-02-03 03:07:00,
2013-02-02 22:10:00,21.8,20.6,30.11,ENE,61,0.0,0.0,95,0.00,,---,0.00,VWS V14.01,2013-02-03 03:10:00,
2013-02-02 22:12:00,22.0,20.8,30.11,ENE,62,0.0,0.0,95,0.00,,---,0.00,VWS V14.01,2013-02-03 03:12:00,
2013-02-02 22:15:00,21.8,20.6,30.11,ENE,62,0.0,0.0,95,0.00,,---,0.00,VWS V14.01,2013-02-03 03:15:00,
2013-02-02 22:17:00,22.0,20.8,30.11,ENE,62,0.0,0.0,95,0.00,,---,0.00,VWS V14.01,2013-02-03 03:17:00,
2013-02-02 22:20:00,21.8,20.6,30.11,ENE,62,0.0,0.0,95,0.00,,---,0.00,VWS V14.01,2013-02-03 03:20:00,
2013-02-02 22:22:00,22.0,20.8,30.11,ENE,61,0.0,0.0,95,0.00,,---,0.00,VWS V14.01,2013-02-03 03:22:00,
2013-02-02 22:25:00,21.7,20.5,30.11,ENE,62,0.0,0.0,95,0.00,,---,0.00,VWS V14.01,2013-02-03 03:25:00,
2013-02-02 22:27:00,21.9,20.7,30.11,ENE,61,0.0,0.0,95,0.00,,---,0.00,VWS V14.01,2013-02-03 03:27:00,
2013-02-02 22:30:00,21.8,20.8,30.10,ENE,61,0.0,0.0,96,0.00,,---,0.00,VWS V14.01,2013-02-03 03:30:00,
2013-02-02 22:32:00,21.9,20.7,30.11,ENE,61,0.0,0.0,95,0.00,,---,0.00,VWS V14.01,2013-02-03 03:32:00,
2013-02-02 22:35:00,21.7,20.7,30.11,ENE,62,0.0,0.0,96,0.00,,---,0.00,VWS V14.01,2013-02-03 03:35:00,
2013-02-02 22:37:00,21.9,20.7,30.11,ENE,62,0.0,0.0,95,0.00,,---,0.00,VWS V14.01,2013-02-03 03:37:00,
2013-02-02 22:40:00,21.7,20.7,30.11,ENE,62,0.0,0.0,96,0.00,,---,0.00,VWS V14.01,2013-02-03 03:40:00,
2013-02-02 22:42:00,21.8,20.6,30.11,ENE,62,0.0,0.0,95,0.00,,---,0.00,VWS V14.01,2013-02-03 03:42:00,
2013-02-02 22:45:00,21.7,20.7,30.11,ENE,62,0.0,0.0,96,0.00,,---,0.00,VWS V14.01,2013-02-03 03:45:00,
2013-02-02 22:47:00,21.8,20.6,30.10,ENE,62,0.0,0.0,95,0.00,,---,0.00,VWS V14.01,2013-02-03 03:47:00,
2013-02-02 22:50:00,21.8,20.8,30.10,ENE,61,0.0,0.0,96,0.00,,---,0.00,VWS V14.01,2013-02-03 03:50:00,
2013-02-02 22:52:00,21.8,20.6,30.11,ENE,62,0.0,0.0,95,0.00,,---,0.00,VWS V14.01,2013-02-03 03:52:00,
2013-02-02 22:55:00,21.8,20.8,30.10,ENE,62,0.0,0.0,96,0.00,,---,0.00,VWS V14.01,2013-02-03 03:55:00,
2013-02-02 22:57:00,21.8,20.6,30.11,ENE,62,0.0,0.0,95,0.00,,---,0.00,VWS V14.01,2013-02-03 03:57:00,
2013-02-02 23:00:00,21.9,20.9,30.10,ENE,62,0.0,0.0,96,0.00,,---,0.00,VWS V14.01,2013-02-03 04:00:00,
2013-02-02 23:02:00,21.8,20.6,30.11,ENE,61,0.0,0.0,95,0.00,,---,0.00,VWS V14.01,2013-02-03 04:02:00,
2013-02-02 23:05:00,21.9,20.9,30.10,ENE,62,0.0,0.0,96,0.00,,---,0.00,VWS V14.01,2013-02-03 04:05:00,
2013-02-02 23:08:00,21.8,20.6,30.11,ENE,62,0.0,0.0,95,0.00,,---,0.00,VWS V14.01,2013-02-03 04:08:00,
2013-02-02 23:10:00,22.0,21.0,30.10,ENE,61,0.0,0.0,96,0.00,,---,0.00,VWS V14.01,2013-02-03 04:10:00,
2013-02-02 23:13:00,21.8,20.6,30.11,ENE,62,0.0,0.0,95,0.00,,---,0.00,VWS V14.01,2013-02-03 04:13:00,
2013-02-02 23:15:00,22.1,21.1,30.10,ENE,62,0.0,0.0,96,0.00,,---,0.00,VWS V14.01,2013-02-03 04:15:00,
2013-02-02 23:18:00,21.8,20.6,30.10,ENE,61,0.0,0.0,95,0.00,,---,0.00,VWS V14.01,2013-02-03 04:18:00,
2013-02-02 23:20:00,22.1,21.1,30.10,ENE,62,0.0,0.0,96,0.00,,---,0.00,VWS V14.01,2013-02-03 04:20:00,
2013-02-02 23:23:00,21.7,20.7,30.11,ENE,61,0.0,0.0,96,0.00,,---,0.00,VWS V14.01,2013-02-03 04:23:00,
2013-02-02 23:25:00,22.1,21.1,30.10,ENE,62,0.0,0.0,96,0.00,,---,0.00,VWS V14.01,2013-02-03 04:25:00,
2013-02-02 23:28:00,21.7,20.7,30.11,ENE,62,0.0,0.0,96,0.00,,---,0.00,VWS V14.01,2013-02-03 04:28:00,
2013-02-02 23:30:00,22.2,21.2,30.10,ENE,61,0.0,0.0,96,0.00,,---,0.00,VWS V14.01,2013-02-03 04:30:00,
2013-02-02 23:33:00,21.8,20.8,30.11,ENE,61,0.0,0.0,96,0.00,,---,0.00,VWS V14.01,2013-02-03 04:33:00,
2013-02-02 23:35:00,22.2,21.2,30.09,ENE,61,0.0,0.0,96,0.00,,---,0.00,VWS V14.01,2013-02-03 04:35:00,
2013-02-02 23:38:00,21.8,20.8,30.10,ENE,62,0.0,0.0,96,0.00,,---,0.00,VWS V14.01,2013-02-03 04:38:00,
2013-02-02 23:40:00,22.2,21.2,30.10,ENE,62,0.0,0.0,96,0.00,,---,0.00,VWS V14.01,2013-02-03 04:40:00,
2013-02-02 23:43:00,21.8,20.8,30.10,ENE,62,0.0,0.0,96,0.00,,---,0.00,VWS V14.01,2013-02-03 04:43:00,
2013-02-02 23:45:00,22.2,21.2,30.09,ENE,62,0.0,0.0,96,0.00,,---,0.00,VWS V14.01,2013-02-03 04:45:00,
2013-02-02 23:48:00,21.8,20.8,30.10,ENE,62,0.0,0.0,96,0.00,,---,0.00,VWS V14.01,2013-02-03 04:48:00,
2013-02-02 23:50:00,22.2,21.2,30.09,ENE,62,0.0,0.0,96,0.00,,---,0.00,VWS V14.01,2013-02-03 04:50:00,
2013-02-02 23:53:00,21.9,20.9,30.10,ENE,62,0.0,0.0,96,0.00,,---,0.00,VWS V14.01,2013-02-03 04:53:00,
2013-02-02 23:55:00,22.2,21.2,30.09,ENE,61,0.0,0.0,96,0.00,,---,0.00,VWS V14.01,2013-02-03 04:55:00,
2013-02-02 23:58:00,22.0,21.0,30.10,ENE,62,0.0,0.0,96,0.00,,---,0.00,VWS V14.01,2013-02-03 04:58:00,